Time;durP1;ratioP1;P1;durP2;ratioP2;P2;SDS_P1;SDS_P2;PMS_P1;PMS_P2;Temp;Humidity;BMP_temperature;BMP_pressure;BME280_temperature;BME280_humidity;BME280_pressure;Samples;Min_cycle;Max_cycle;Signal;HPM_P1;HPM_P2
2022/05/28 00:00:11;;;;;;;4.57;2.10;;;18.10;99.90;;;;;;5022294;28;20033;-72
2022/05/28 00:02:38;;;;;;;3.38;2.30;;;18.10;99.90;;;;;;5020583;28;20028;-73
2022/05/28 00:05:05;;;;;;;4.78;2.78;;;18.00;99.90;;;;;;5040368;28;20059;-72
2022/05/28 00:07:30;;;;;;;3.28;2.38;;;17.90;99.90;;;;;;5027743;28;20045;-72
2022/05/28 00:09:56;;;;;;;3.40;1.90;;;17.90;99.90;;;;;;5004868;28;20490;-73
2022/05/28 00:12:29;;;;;;;4.70;2.10;;;17.90;99.90;;;;;;5023546;28;20042;-73
2022/05/28 00:14:56;;;;;;;6.13;2.40;;;17.80;99.90;;;;;;5009151;28;20033;-72
2022/05/28 00:17:22;;;;;;;3.38;2.15;;;17.70;99.90;;;;;;5021704;28;20025;-72
2022/05/28 00:19:49;;;;;;;3.33;2.25;;;17.70;99.90;;;;;;5030360;28;20088;-72
2022/05/28 00:22:14;;;;;;;5.07;2.55;;;17.70;99.90;;;;;;5011500;28;20029;-72
2022/05/28 00:24:40;;;;;;;6.63;2.60;;;17.60;99.90;;;;;;5034113;28;20435;-72
2022/05/28 00:27:06;;;;;;;6.80;2.72;;;17.50;99.90;;;;;;5012770;28;20490;-72
2022/05/28 00:29:32;;;;;;;5.50;2.13;;;17.50;99.90;;;;;;5018249;28;20445;-73
2022/05/28 00:31:58;;;;;;;4.35;2.55;;;17.50;99.90;;;;;;5016541;28;20017;-72
2022/05/28 00:34:25;;;;;;;4.65;2.20;;;17.40;99.90;;;;;;5038294;28;20044;-72
2022/05/28 00:36:51;;;;;;;6.18;2.17;;;17.40;99.90;;;;;;5020005;28;20158;-72
2022/05/28 00:39:17;;;;;;;3.97;2.15;;;17.30;99.90;;;;;;5039603;28;20429;-73
2022/05/28 00:41:43;;;;;;;4.95;2.28;;;17.30;99.90;;;;;;5008693;28;20033;-72
2022/05/28 00:44:10;;;;;;;3.75;2.05;;;17.20;99.90;;;;;;5035036;28;20097;-71
2022/05/28 00:46:36;;;;;;;2.67;2.38;;;17.10;99.90;;;;;;5012838;28;20045;-72
2022/05/28 00:49:06;;;;;;;4.20;2.03;;;17.00;99.90;;;;;;5021487;28;20108;-72
2022/05/28 00:51:40;;;;;;;3.83;2.37;;;17.10;99.90;;;;;;5014418;28;20026;-72
2022/05/28 00:54:08;;;;;;;4.88;2.40;;;17.00;99.90;;;;;;5033061;28;20471;-72
2022/05/28 00:56:35;;;;;;;3.10;2.47;;;17.00;99.90;;;;;;5014336;28;20029;-72
2022/05/28 00:59:01;;;;;;;4.07;2.53;;;17.00;99.90;;;;;;5036050;28;20096;-72
2022/05/28 01:01:30;;;;;;;2.70;2.30;;;16.90;99.90;;;;;;5037000;28;20032;-72
2022/05/28 01:04:26;;;;;;;3.25;2.38;;;16.90;99.90;;;;;;5038159;28;20025;-73
2022/05/28 01:07:15;;;;;;;2.67;2.25;;;16.90;99.90;;;;;;5001928;28;20025;-72
2022/05/28 01:09:52;;;;;;;2.42;2.20;;;16.80;99.90;;;;;;5021576;28;20018;-72
2022/05/28 01:12:30;;;;;;;3.75;2.15;;;16.80;99.90;;;;;;5021374;28;20075;-72
2022/05/28 01:15:00;;;;;;;4.32;2.60;;;16.80;99.90;;;;;;5006084;28;20021;-72
2022/05/28 01:17:39;;;;;;;4.72;2.50;;;16.80;99.90;;;;;;5020890;28;20032;-72
2022/05/28 01:20:15;;;;;;;6.93;3.30;;;16.80;99.90;;;;;;5008846;28;20022;-72
2022/05/28 01:23:10;;;;;;;3.13;2.67;;;16.70;99.90;;;;;;5029997;28;20555;-72
2022/05/28 01:25:42;;;;;;;4.15;2.75;;;16.70;99.90;;;;;;5028030;28;20033;-72
2022/05/28 01:28:10;;;;;;;3.05;2.53;;;16.60;99.90;;;;;;5033003;28;20037;-72
2022/05/28 01:30:40;;;;;;;2.70;2.17;;;16.50;99.90;;;;;;5031153;28;20025;-73
2022/05/28 01:33:07;;;;;;;3.75;2.47;;;16.40;99.90;;;;;;5035619;28;20076;-72
2022/05/28 01:35:35;;;;;;;6.80;2.58;;;16.40;99.90;;;;;;5033930;28;20015;-73
2022/05/28 01:38:02;;;;;;;2.50;2.30;;;16.30;99.90;;;;;;5037393;28;20029;-72
2022/05/28 01:40:28;;;;;;;3.20;2.47;;;16.30;99.90;;;;;;5034019;28;20087;-73
2022/05/28 01:42:58;;;;;;;6.22;2.63;;;16.20;99.90;;;;;;5003753;28;20030;-73
2022/05/28 01:45:30;;;;;;;5.77;2.70;;;16.20;99.90;;;;;;5020424;28;20018;-73
2022/05/28 01:48:00;;;;;;;7.65;2.50;;;16.10;99.90;;;;;;5036204;28;20768;-73
2022/05/28 01:50:28;;;;;;;6.43;3.58;;;16.10;99.90;;;;;;5024132;28;20040;-73
2022/05/28 01:52:55;;;;;;;3.38;2.50;;;16.00;99.90;;;;;;5014476;28;20049;-72
2022/05/28 01:55:24;;;;;;;5.60;2.92;;;16.00;99.90;;;;;;5007324;28;20030;-73
2022/05/28 01:57:50;;;;;;;6.55;3.10;;;16.00;99.90;;;;;;5036934;28;20429;-73
2022/05/28 02:00:16;;;;;;;3.80;3.10;;;16.00;99.90;;;;;;5037825;28;20389;-72
2022/05/28 02:02:42;;;;;;;6.68;2.80;;;16.00;99.90;;;;;;5026339;28;20022;-73
2022/05/28 02:05:09;;;;;;;3.42;2.80;;;16.00;99.90;;;;;;5004334;28;20044;-73
2022/05/28 02:07:35;;;;;;;4.78;3.17;;;15.90;99.90;;;;;;5004921;28;20026;-72
2022/05/28 02:10:06;;;;;;;3.40;2.55;;;15.80;99.90;;;;;;5025305;28;20115;-73
2022/05/28 02:12:47;;;;;;;3.70;2.65;;;15.80;99.90;;;;;;5007582;28;20386;-73
2022/05/28 02:15:27;;;;;;;5.30;2.70;;;15.70;99.90;;;;;;5026580;28;20029;-73
2022/05/28 02:18:06;;;;;;;4.25;2.80;;;15.70;99.90;;;;;;5034152;28;20097;-72
2022/05/28 02:20:59;;;;;;;6.30;2.90;;;15.60;99.90;;;;;;5037817;28;20029;-73
2022/05/28 02:23:31;;;;;;;4.18;2.67;;;15.60;99.90;;;;;;5033656;28;20816;-72
2022/05/28 02:26:03;;;;;;;4.20;3.35;;;15.40;99.90;;;;;;5034148;28;20028;-73
2022/05/28 02:28:32;;;;;;;6.80;3.05;;;15.40;99.90;;;;;;5012928;28;20033;-73
2022/05/28 02:31:08;;;;;;;4.35;3.20;;;15.30;99.90;;;;;;5024394;28;20048;-72
2022/05/28 02:33:34;;;;;;;6.47;2.65;;;15.30;99.90;;;;;;5026973;28;20022;-73
2022/05/28 02:36:00;;;;;;;3.75;2.65;;;15.20;99.90;;;;;;5019478;28;20030;-73
2022/05/28 02:38:26;;;;;;;4.78;3.35;;;15.20;99.90;;;;;;5030478;28;20521;-73
2022/05/28 02:40:54;;;;;;;3.85;3.28;;;15.20;99.90;;;;;;5034493;28;20037;-73
2022/05/28 02:43:22;;;;;;;5.35;2.90;;;15.10;99.90;;;;;;5033403;28;20014;-73
2022/05/28 02:45:48;;;;;;;8.63;2.90;;;15.10;99.90;;;;;;5036457;28;20060;-72
2022/05/28 02:48:14;;;;;;;5.50;2.97;;;15.10;99.90;;;;;;5034958;28;20037;-72
2022/05/28 02:50:40;;;;;;;7.25;3.42;;;15.00;99.90;;;;;;5037291;28;20033;-72
2022/05/28 02:53:06;;;;;;;9.00;3.00;;;15.00;99.90;;;;;;5015865;28;20036;-73
2022/05/28 02:55:32;;;;;;;5.07;3.17;;;14.90;99.90;;;;;;5025213;28;20057;-72
2022/05/28 02:57:58;;;;;;;3.70;3.08;;;14.90;99.90;;;;;;5032955;28;20504;-72
2022/05/28 03:00:24;;;;;;;4.22;3.10;;;14.90;99.90;;;;;;5029068;28;20026;-72
2022/05/28 03:02:50;;;;;;;4.85;3.03;;;14.90;99.90;;;;;;5002107;28;20045;-73
2022/05/28 03:05:18;;;;;;;5.38;2.95;;;14.90;99.90;;;;;;5006928;28;20033;-73
2022/05/28 03:07:44;;;;;;;4.40;3.00;;;14.80;99.90;;;;;;5009040;28;20040;-73
2022/05/28 03:10:11;;;;;;;5.65;3.00;;;14.80;99.90;;;;;;5005025;28;20026;-72
2022/05/28 03:12:38;;;;;;;6.68;3.10;;;14.70;99.90;;;;;;5024463;28;20032;-72
2022/05/28 03:15:05;;;;;;;6.53;3.53;;;14.70;99.90;;;;;;5029090;28;20052;-73
2022/05/28 03:17:31;;;;;;;6.45;3.30;;;14.70;99.90;;;;;;5030569;28;20110;-72
2022/05/28 03:19:59;;;;;;;5.63;3.97;;;14.60;99.90;;;;;;5030590;28;20478;-72
2022/05/28 03:22:25;;;;;;;3.90;3.20;;;14.60;99.90;;;;;;5030340;28;20842;-72
2022/05/28 03:24:50;;;;;;;4.10;3.67;;;14.60;99.90;;;;;;5036598;28;20061;-73
2022/05/28 03:27:16;;;;;;;5.25;3.30;;;14.50;99.90;;;;;;5033166;28;20029;-73
2022/05/28 03:29:42;;;;;;;6.95;3.28;;;14.60;99.90;;;;;;5006544;28;20045;-72
2022/05/28 03:32:08;;;;;;;5.30;3.65;;;14.50;99.90;;;;;;5033192;28;20390;-73
2022/05/28 03:34:34;;;;;;;10.88;3.40;;;14.50;99.90;;;;;;5010343;28;20026;-73
2022/05/28 03:36:59;;;;;;;9.35;3.78;;;14.50;99.90;;;;;;5001315;28;20072;-73
2022/05/28 03:39:25;;;;;;;4.05;3.13;;;14.40;99.90;;;;;;5026362;28;20053;-73
2022/05/28 03:41:51;;;;;;;4.95;4.18;;;14.40;99.90;;;;;;5008691;28;20026;-73
2022/05/28 03:44:17;;;;;;;3.78;3.30;;;14.40;99.90;;;;;;5022462;28;20022;-73
2022/05/28 03:46:43;;;;;;;6.38;4.00;;;14.40;99.90;;;;;;5006726;28;20100;-73
2022/05/28 03:49:34;;;;;;;10.48;4.03;;;14.30;99.90;;;;;;5009220;28;20029;-73
2022/05/28 03:52:01;;;;;;;4.95;3.38;;;14.30;99.90;;;;;;5030140;28;20030;-73
2022/05/28 03:54:27;;;;;;;6.35;3.67;;;14.30;99.90;;;;;;5027003;28;20010;-73
2022/05/28 03:57:17;;;;;;;8.75;3.88;;;14.30;99.90;;;;;;5026446;28;20035;-73
2022/05/28 03:59:42;;;;;;;5.20;3.72;;;14.40;99.90;;;;;;5031715;28;20017;-73
2022/05/28 04:02:09;;;;;;;5.97;3.47;;;14.40;99.90;;;;;;5034401;28;20104;-73
2022/05/28 04:04:35;;;;;;;6.95;4.00;;;14.40;99.90;;;;;;5032920;28;20049;-73
2022/05/28 04:07:01;;;;;;;4.35;3.50;;;14.40;99.90;;;;;;5027332;28;20735;-72
2022/05/28 04:09:27;;;;;;;4.18;3.20;;;14.40;99.90;;;;;;5026243;28;20025;-73
2022/05/28 04:11:53;;;;;;;4.68;3.67;;;14.30;99.90;;;;;;5031663;28;20033;-73
2022/05/28 04:14:19;;;;;;;4.93;3.53;;;14.30;99.90;;;;;;5012698;28;20022;-73
2022/05/28 04:16:45;;;;;;;5.72;3.55;;;14.30;99.90;;;;;;5037182;28;20017;-73
2022/05/28 04:19:11;;;;;;;5.07;3.75;;;14.30;99.90;;;;;;5021160;28;20021;-73
2022/05/28 04:21:37;;;;;;;6.20;3.70;;;14.30;99.90;;;;;;5040110;28;20029;-73
2022/05/28 04:24:04;;;;;;;14.07;4.30;;;14.30;99.90;;;;;;5025044;28;20413;-73
2022/05/28 04:26:30;;;;;;;7.00;3.70;;;14.20;99.90;;;;;;5021955;28;20022;-73
2022/05/28 04:28:56;;;;;;;4.70;3.58;;;14.20;99.90;;;;;;5007959;28;20112;-73
2022/05/28 04:31:22;;;;;;;7.60;4.10;;;14.20;99.90;;;;;;5024031;28;20058;-73
2022/05/28 04:33:48;;;;;;;7.22;3.85;;;14.20;99.90;;;;;;5036991;28;20040;-73
2022/05/28 04:36:14;;;;;;;6.20;3.78;;;14.20;99.90;;;;;;5035193;28;20383;-74
2022/05/28 04:38:39;;;;;;;4.97;3.75;;;14.20;99.90;;;;;;5030719;28;20022;-73
2022/05/28 04:41:05;;;;;;;7.32;4.38;;;14.20;99.90;;;;;;5030917;28;20048;-74
2022/05/28 04:43:31;;;;;;;6.88;3.70;;;14.20;99.90;;;;;;5030839;28;20021;-73
2022/05/28 04:45:57;;;;;;;5.50;4.10;;;14.20;99.90;;;;;;5034909;28;20025;-74
2022/05/28 04:48:23;;;;;;;7.57;3.85;;;14.20;99.90;;;;;;5033183;28;20108;-73
2022/05/28 04:50:48;;;;;;;6.93;4.28;;;14.20;99.90;;;;;;5039571;28;20155;-73
2022/05/28 04:53:14;;;;;;;9.55;4.00;;;14.20;99.90;;;;;;5034750;28;20032;-74
2022/05/28 04:55:40;;;;;;;5.32;3.58;;;14.30;99.90;;;;;;5021973;28;20029;-74
2022/05/28 04:58:06;;;;;;;7.10;4.07;;;14.40;99.90;;;;;;5035882;28;20050;-73
2022/05/28 05:00:33;;;;;;;8.98;4.07;;;14.40;99.90;;;;;;5018758;28;20044;-74
2022/05/28 05:02:59;;;;;;;5.95;3.85;;;14.50;99.90;;;;;;5035557;28;20017;-74
2022/05/28 05:05:26;;;;;;;6.70;4.07;;;14.50;99.90;;;;;;5039247;28;20083;-73
2022/05/28 05:07:52;;;;;;;4.30;3.88;;;14.60;99.90;;;;;;5023157;28;20064;-73
2022/05/28 05:10:17;;;;;;;5.63;4.45;;;14.60;99.90;;;;;;5020697;28;20424;-73
2022/05/28 05:12:43;;;;;;;9.93;4.00;;;14.70;99.90;;;;;;5006247;28;20029;-74
2022/05/28 05:15:10;;;;;;;5.63;3.90;;;14.70;99.90;;;;;;5026072;28;20022;-74
2022/05/28 05:17:35;;;;;;;6.03;3.75;;;14.80;99.90;;;;;;5027724;28;20030;-74
2022/05/28 05:20:02;;;;;;;7.65;3.92;;;14.80;99.90;;;;;;5038903;28;20022;-73
2022/05/28 05:22:28;;;;;;;4.97;3.50;;;14.80;99.90;;;;;;5017458;28;20026;-74
2022/05/28 05:24:54;;;;;;;8.93;3.72;;;14.90;99.90;;;;;;5035563;28;20030;-74
2022/05/28 05:27:20;;;;;;;6.50;4.18;;;14.90;99.90;;;;;;5035383;28;20066;-74
2022/05/28 05:29:46;;;;;;;7.07;4.43;;;15.00;99.90;;;;;;5025882;28;20060;-74
2022/05/28 05:32:12;;;;;;;4.25;3.78;;;15.00;99.90;;;;;;5033526;28;20029;-73
2022/05/28 05:34:38;;;;;;;8.60;4.53;;;15.10;99.90;;;;;;5020863;28;20112;-74
2022/05/28 05:37:04;;;;;;;6.88;3.90;;;15.10;99.90;;;;;;5017095;28;20401;-74
2022/05/28 05:39:30;;;;;;;5.15;4.50;;;15.10;99.90;;;;;;5007537;28;20021;-74
2022/05/28 05:41:56;;;;;;;7.63;4.00;;;15.20;99.90;;;;;;5017980;28;20049;-73
2022/05/28 05:44:22;;;;;;;10.93;4.53;;;15.20;99.90;;;;;;5028890;28;20018;-73
2022/05/28 05:46:48;;;;;;;8.05;4.50;;;15.20;99.90;;;;;;5020445;28;20052;-74
2022/05/28 05:49:14;;;;;;;6.65;4.32;;;15.20;99.90;;;;;;5028319;28;20018;-74
2022/05/28 05:51:46;;;;;;;8.50;4.10;;;15.30;99.90;;;;;;5028078;28;20025;-74
2022/05/28 05:54:13;;;;;;;8.77;4.22;;;15.30;99.90;;;;;;5005359;28;20085;-74
2022/05/28 05:56:39;;;;;;;5.68;3.85;;;15.40;99.90;;;;;;5010262;28;20022;-74
2022/05/28 05:59:05;;;;;;;10.32;4.18;;;15.40;99.90;;;;;;5008101;28;20517;-74
2022/05/28 06:01:31;;;;;;;5.38;4.13;;;15.50;99.90;;;;;;5030071;28;20025;-74
2022/05/28 06:03:58;;;;;;;9.35;3.50;;;15.50;99.90;;;;;;5036038;28;20121;-74
2022/05/28 06:06:24;;;;;;;5.95;5.22;;;15.60;99.90;;;;;;5037460;28;20100;-73
2022/05/28 06:08:50;;;;;;;6.05;4.07;;;15.60;99.90;;;;;;5012740;28;20060;-74
2022/05/28 06:11:16;;;;;;;5.63;4.25;;;15.70;99.90;;;;;;5028545;28;20029;-74
2022/05/28 06:13:42;;;;;;;6.63;3.90;;;15.70;99.90;;;;;;5018819;28;20163;-74
2022/05/28 06:16:09;;;;;;;4.43;3.58;;;15.70;99.90;;;;;;5036716;28;20048;-74
2022/05/28 06:18:35;;;;;;;4.88;4.00;;;15.80;99.90;;;;;;5027391;28;20537;-74
2022/05/28 06:21:01;;;;;;;7.05;4.95;;;15.90;99.90;;;;;;5033123;28;20029;-74
2022/05/28 06:23:28;;;;;;;5.32;4.47;;;16.00;99.90;;;;;;5021186;28;20053;-74
2022/05/28 06:25:54;;;;;;;7.43;4.20;;;16.10;99.90;;;;;;5025205;28;20064;-74
2022/05/28 06:28:21;;;;;;;5.85;3.65;;;16.10;99.90;;;;;;5023106;28;20097;-74
2022/05/28 06:30:49;;;;;;;7.90;4.43;;;16.30;99.90;;;;;;5028827;28;20113;-74
2022/05/28 06:33:16;;;;;;;13.02;5.00;;;16.30;99.90;;;;;;5007414;28;20109;-74
2022/05/28 06:35:42;;;;;;;7.32;4.50;;;16.40;99.90;;;;;;5013136;28;20079;-74
2022/05/28 06:38:08;;;;;;;7.20;4.22;;;16.40;99.90;;;;;;5033884;28;20010;-75
2022/05/28 06:40:35;;;;;;;7.47;4.25;;;16.60;99.90;;;;;;5032408;28;20033;-74
2022/05/28 06:43:02;;;;;;;6.05;4.03;;;16.60;99.90;;;;;;5014988;28;20454;-75
2022/05/28 06:45:28;;;;;;;6.10;4.95;;;16.60;99.90;;;;;;5016721;28;20033;-74
2022/05/28 06:47:54;;;;;;;7.82;3.97;;;16.70;99.90;;;;;;5036127;28;20057;-74
2022/05/28 06:53:08;;;;;;;6.22;3.78;;;16.90;99.90;;;;;;5020616;28;20505;-74
2022/05/28 06:55:35;;;;;;;7.35;4.05;;;17.00;99.90;;;;;;5019797;28;20037;-74
2022/05/28 06:58:02;;;;;;;4.75;3.85;;;17.10;99.90;;;;;;5022928;28;20434;-74
2022/05/28 07:00:27;;;;;;;4.82;3.85;;;17.30;99.90;;;;;;5022548;28;20021;-75
2022/05/28 07:02:53;;;;;;;6.07;3.63;;;17.30;99.90;;;;;;5006948;28;20026;-74
2022/05/28 07:05:19;;;;;;;5.00;3.65;;;17.40;99.90;;;;;;5008624;28;20399;-74
2022/05/28 07:07:45;;;;;;;4.05;3.38;;;17.40;99.90;;;;;;5008724;28;20032;-74
2022/05/28 07:10:11;;;;;;;4.18;3.42;;;17.50;99.90;;;;;;5029843;28;20104;-73
2022/05/28 07:12:37;;;;;;;7.15;3.80;;;17.60;99.90;;;;;;5029160;28;20014;-74
2022/05/28 07:15:03;;;;;;;9.70;3.97;;;17.70;99.90;;;;;;5033950;28;20025;-74
2022/05/28 07:17:29;;;;;;;5.55;4.03;;;17.80;99.90;;;;;;5032882;28;20065;-73
2022/05/28 07:19:55;;;;;;;6.15;3.13;;;17.80;99.90;;;;;;5018310;28;20029;-74
2022/05/28 07:22:20;;;;;;;4.00;3.30;;;17.80;99.90;;;;;;5016496;28;20509;-74
2022/05/28 07:24:46;;;;;;;5.38;3.20;;;17.90;99.90;;;;;;5017579;28;20022;-75
2022/05/28 07:27:12;;;;;;;5.05;3.47;;;17.90;99.90;;;;;;5020057;28;20087;-74
2022/05/28 07:29:39;;;;;;;6.63;3.85;;;17.90;99.90;;;;;;5033330;28;20164;-74
2022/05/28 07:32:07;;;;;;;3.88;3.05;;;18.00;99.90;;;;;;5033699;28;20056;-73
2022/05/28 07:34:34;;;;;;;8.52;3.05;;;18.10;99.90;;;;;;5015050;28;20478;-74
2022/05/28 07:37:00;;;;;;;4.22;3.38;;;18.10;99.90;;;;;;5030445;28;20029;-74
2022/05/28 07:39:26;;;;;;;6.47;3.28;;;18.20;99.90;;;;;;5034343;28;20048;-73
2022/05/28 07:41:52;;;;;;;4.45;3.13;;;18.30;99.90;;;;;;5036209;28;20497;-74
2022/05/28 07:44:19;;;;;;;10.80;3.30;;;18.40;99.90;;;;;;5027950;28;20120;-74
2022/05/28 07:46:45;;;;;;;4.25;3.05;;;18.40;99.90;;;;;;5009832;28;20060;-74
2022/05/28 07:49:11;;;;;;;8.07;4.30;;;18.40;99.90;;;;;;5031630;28;20021;-74
2022/05/28 07:51:37;;;;;;;5.07;3.20;;;18.50;99.90;;;;;;5014258;28;20033;-76
2022/05/28 07:54:05;;;;;;;5.35;3.25;;;18.40;99.90;;;;;;5019807;28;20025;-75
2022/05/28 07:56:31;;;;;;;3.58;2.83;;;18.50;99.90;;;;;;5036082;28;20524;-74
2022/05/28 07:58:58;;;;;;;7.07;3.40;;;18.50;99.90;;;;;;5039415;28;20394;-75
2022/05/28 08:01:29;;;;;;;4.25;2.95;;;18.50;99.90;;;;;;5037193;28;20026;-73
2022/05/28 08:03:56;;;;;;;6.80;3.25;;;18.60;99.90;;;;;;5003815;28;20030;-75
2022/05/28 08:06:22;;;;;;;5.93;3.30;;;18.60;99.90;;;;;;5006515;28;20037;-72
2022/05/28 08:08:51;;;;;;;8.55;3.22;;;18.70;99.90;;;;;;5023636;28;20093;-72
2022/05/28 08:11:18;;;;;;;5.25;3.50;;;18.70;99.90;;;;;;5032352;28;20021;-73
2022/05/28 08:13:44;;;;;;;4.78;3.50;;;18.80;99.90;;;;;;5035215;28;20108;-72
2022/05/28 08:16:09;;;;;;;5.18;2.72;;;19.00;99.90;;;;;;5034640;28;20040;-73
2022/05/28 08:18:37;;;;;;;4.93;4.00;;;19.00;99.90;;;;;;5037102;28;20478;-72
2022/05/28 08:23:48;;;;;;;6.03;3.33;;;19.20;99.90;;;;;;5030403;28;20041;-72
2022/05/28 08:26:14;;;;;;;6.35;3.33;;;19.40;99.90;;;;;;5028337;28;20021;-73
2022/05/28 08:28:42;;;;;;;8.48;3.00;;;19.30;99.90;;;;;;5034243;28;20034;-72
2022/05/28 08:31:08;;;;;;;5.55;3.25;;;19.40;99.90;;;;;;5014379;28;20025;-72
2022/05/28 08:33:34;;;;;;;4.90;2.85;;;19.50;99.90;;;;;;5028365;28;20053;-73
2022/05/28 08:36:00;;;;;;;6.80;2.80;;;19.40;99.90;;;;;;5016684;28;20083;-73
2022/05/28 08:38:27;;;;;;;5.25;2.90;;;19.40;99.90;;;;;;5031337;28;20021;-73
2022/05/28 08:40:58;;;;;;;5.50;3.17;;;19.40;99.90;;;;;;5018871;28;20093;-73
2022/05/28 08:43:28;;;;;;;5.85;3.13;;;19.50;99.90;;;;;;5017753;28;20029;-73
2022/05/28 08:45:54;;;;;;;5.20;2.55;;;19.60;99.90;;;;;;5020820;28;20052;-73
2022/05/28 08:48:45;;;;;;;7.07;2.72;;;19.70;99.90;;;;;;5039198;28;20460;-74
2022/05/28 08:51:17;;;;;;;;;;;19.80;99.90;;;;;;5028236;28;20034;-73
2022/05/28 08:53:49;;;;;;;4.97;3.05;;;19.90;99.90;;;;;;5018473;28;19906;-73
2022/05/28 08:56:19;;;;;;;4.50;3.03;;;20.00;99.90;;;;;;5023413;28;20054;-74
2022/05/28 08:58:48;;;;;;;9.38;3.35;;;20.10;99.90;;;;;;5025333;28;20093;-74
2022/05/28 09:01:19;;;;;;;6.35;3.05;;;20.10;99.90;;;;;;5026080;28;20033;-73
2022/05/28 09:04:01;;;;;;;8.18;3.55;;;20.00;99.90;;;;;;5027460;28;20105;-74
2022/05/28 09:06:39;;;;;;;6.50;2.60;;;20.20;99.90;;;;;;5013955;28;20056;-74
2022/05/28 09:09:11;;;;;;;5.85;2.45;;;20.40;99.90;;;;;;5028329;28;20026;-74
2022/05/28 09:11:43;;;;;;;6.47;3.13;;;20.40;99.90;;;;;;5020501;28;20481;-73
2022/05/28 09:14:18;;;;;;;4.18;2.78;;;20.50;99.90;;;;;;5032630;28;20018;-73
2022/05/28 09:16:46;;;;;;;3.58;2.40;;;20.50;99.90;;;;;;5018761;28;20053;-74
2022/05/28 09:19:21;;;;;;;5.18;2.70;;;20.70;99.90;;;;;;5017947;28;20079;-74
2022/05/28 09:21:48;;;;;;;6.18;2.80;;;20.70;99.90;;;;;;5038483;28;20081;-75
2022/05/28 09:24:33;;;;;;;7.93;3.05;;;20.70;99.90;;;;;;5022217;28;20026;-73
2022/05/28 09:27:19;;;;;;;3.85;2.15;;;20.80;99.90;;;;;;5020302;28;20022;-74
2022/05/28 09:30:07;;;;;;;8.60;2.97;;;20.80;99.90;;;;;;5003542;28;20162;-73
2022/05/28 09:33:01;;;;;;;5.80;2.88;;;20.70;99.90;;;;;;5007731;28;20021;-73
2022/05/28 09:35:48;;;;;;;5.70;2.55;;;20.90;99.90;;;;;;5026098;28;20064;-73
2022/05/28 09:38:41;;;;;;;9.15;2.67;;;21.10;99.90;;;;;;5024636;28;20498;-74
2022/05/28 09:41:31;;;;;;;6.30;2.58;;;21.30;99.90;;;;;;5000924;28;20042;-74
2022/05/28 09:44:09;;;;;;;6.47;2.30;;;21.10;99.90;;;;;;5025505;28;20036;-74
2022/05/28 09:46:39;;;;;;;3.42;2.28;;;21.20;99.90;;;;;;5030083;28;20132;-73
2022/05/28 09:49:12;;;;;;;8.60;3.00;;;21.30;99.90;;;;;;5017500;28;20022;-73
2022/05/28 09:51:39;;;;;;;5.15;2.00;;;21.50;99.90;;;;;;5033979;28;20687;-75
2022/05/28 09:54:23;;;;;;;3.40;2.65;;;21.50;99.90;;;;;;5037163;28;20026;-73
2022/05/28 09:57:10;;;;;;;2.75;1.85;;;21.50;99.90;;;;;;5014020;28;20072;-73
2022/05/28 09:59:55;;;;;;;6.55;2.55;;;21.40;99.90;;;;;;5020715;28;20081;-73
2022/05/28 10:02:41;;;;;;;2.65;2.00;;;21.30;99.90;;;;;;5020623;28;20394;-73
2022/05/28 10:05:16;;;;;;;3.10;2.00;;;21.40;99.90;;;;;;5003693;28;20475;-74
2022/05/28 10:07:53;;;;;;;4.55;2.33;;;21.30;99.90;;;;;;5024411;28;20025;-72
2022/05/28 10:10:31;;;;;;;3.22;2.33;;;21.20;99.90;;;;;;5025009;28;20030;-73
2022/05/28 10:13:13;;;;;;;4.85;2.55;;;21.30;99.90;;;;;;5016528;28;20020;-73
2022/05/28 10:15:49;;;;;;;4.40;2.22;;;21.30;99.90;;;;;;5014962;28;20110;-73
2022/05/28 10:18:28;;;;;;;16.27;3.55;;;21.50;99.90;;;;;;5036696;28;20444;-73
2022/05/28 10:21:10;;;;;;;7.82;2.15;;;21.80;99.90;;;;;;5018496;28;20029;-72
2022/05/28 10:23:39;;;;;;;5.05;2.65;;;22.00;99.90;;;;;;5007897;28;20072;-73
2022/05/28 10:26:10;;;;;;;3.47;1.95;;;22.00;99.90;;;;;;5020018;28;20411;-73
2022/05/28 10:28:48;;;;;;;5.65;2.00;;;22.20;99.90;;;;;;5002711;28;20124;-72
2022/05/28 10:31:26;;;;;;;3.05;1.80;;;22.30;99.90;;;;;;5004068;28;20033;-73
2022/05/28 10:33:52;;;;;;;4.20;2.30;;;22.30;99.90;;;;;;5007720;28;20025;-74
2022/05/28 10:36:23;;;;;;;3.95;2.00;;;22.40;99.90;;;;;;5024062;28;20018;-73
2022/05/28 10:38:49;;;;;;;10.20;2.25;;;22.70;99.90;;;;;;5028055;28;20428;-76
2022/05/28 10:41:29;;;;;;;7.30;2.20;;;22.60;99.90;;;;;;5026812;28;20038;-75
2022/05/28 10:43:55;;;;;;;2.97;1.98;;;22.70;99.90;;;;;;5031308;28;20022;-73
2022/05/28 10:46:40;;;;;;;3.70;2.00;;;22.90;99.90;;;;;;5028378;28;20037;-76
2022/05/28 10:49:18;;;;;;;3.90;1.75;;;22.90;99.90;;;;;;5008385;28;20414;-75
2022/05/28 10:52:08;;;;;;;3.67;2.40;;;23.00;99.90;;;;;;5014081;28;20022;-74
2022/05/28 10:55:05;;;;;;;5.60;2.35;;;22.90;99.90;;;;;;5033585;28;20053;-75
2022/05/28 10:57:46;;;;;;;9.52;1.60;;;23.00;99.90;;;;;;5018660;28;20041;-75
2022/05/28 11:00:34;;;;;;;3.50;2.08;;;23.20;99.90;;;;;;5013112;28;20030;-75
2022/05/28 11:03:36;;;;;;;3.10;1.70;;;23.30;99.90;;;;;;5020263;28;20120;-75
2022/05/28 11:06:16;;;;;;;3.65;2.13;;;23.50;99.90;;;;;;5002752;28;20117;-76
2022/05/28 11:09:08;;;;;;;4.22;2.25;;;23.30;99.90;;;;;;5003095;28;20048;-76
2022/05/28 11:11:58;;;;;;;3.03;1.67;;;23.30;99.90;;;;;;5032037;28;20545;-74
2022/05/28 11:14:53;;;;;;;3.97;1.70;;;23.30;99.90;;;;;;5029234;28;20027;-75
2022/05/28 11:17:53;;;;;;;2.20;1.50;;;23.40;99.90;;;;;;5027810;28;20021;-76
2022/05/28 11:20:28;;;;;;;5.72;1.80;;;23.20;99.90;;;;;;5033836;28;20060;-76
2022/05/28 11:23:23;;;;;;;4.57;1.70;;;23.30;99.90;;;;;;5036404;28;20021;-77
2022/05/28 11:25:58;;;;;;;3.95;1.92;;;23.10;99.90;;;;;;5035744;28;20033;-75
2022/05/28 11:28:45;;;;;;;7.15;2.17;;;23.20;99.90;;;;;;5004041;28;20030;-77
2022/05/28 11:31:33;;;;;;;5.05;2.20;;;23.50;99.90;;;;;;5022524;28;20036;-76
2022/05/28 11:34:09;;;;;;;2.97;1.50;;;23.70;99.90;;;;;;5033331;28;20049;-76
2022/05/28 11:36:46;;;;;;;3.47;1.48;;;23.80;99.90;;;;;;5027248;28;20025;-77
2022/05/28 11:39:17;;;;;;;3.83;1.60;;;24.00;99.90;;;;;;5015019;28;20421;-76
2022/05/28 11:42:21;;;;;;;6.07;2.15;;;24.10;99.90;;;;;;5030960;28;20045;-77
2022/05/28 11:44:54;;;;;;;2.65;1.67;;;24.00;99.90;;;;;;4976829;28;20078;-76
2022/05/28 11:47:38;;;;;;;3.10;1.40;;;24.20;99.90;;;;;;5022719;28;20506;-79
2022/05/28 11:53:25;;;;;;;5.35;1.65;;;24.40;99.90;;;;;;5033256;28;20036;-76
2022/05/28 11:55:55;;;;;;;4.03;1.45;;;24.80;99.70;;;;;;5020013;28;20413;-76
2022/05/28 11:58:27;;;;;;;;;;;24.90;99.00;;;;;;5033023;28;20022;-76
2022/05/28 12:01:02;;;;;;;3.25;1.50;;;25.00;98.50;;;;;;5031966;28;19905;-78
2022/05/28 12:03:29;;;;;;;2.80;1.33;;;24.90;98.20;;;;;;5023614;28;20028;-76
2022/05/28 12:06:22;;;;;;;3.35;1.52;;;24.70;97.70;;;;;;5036148;28;20462;-78
2022/05/28 12:09:28;;;;;;;2.88;1.23;;;24.60;98.70;;;;;;5026430;28;20128;-76
2022/05/28 12:12:18;;;;;;;4.72;1.40;;;24.60;98.20;;;;;;5000293;28;20041;-77
2022/05/28 12:15:02;;;;;;;2.38;1.33;;;24.40;98.20;;;;;;5021970;28;20018;-77
2022/05/28 12:17:29;;;;;;;2.15;1.23;;;24.40;98.80;;;;;;5008934;28;20168;-77
2022/05/28 12:19:59;;;;;;;3.80;1.13;;;24.30;99.10;;;;;;5008755;28;20063;-78
2022/05/28 12:22:30;;;;;;;1.87;1.23;;;24.10;98.60;;;;;;5036288;28;20482;-76
2022/05/28 12:25:11;;;;;;;7.22;1.75;;;24.10;99.00;;;;;;5032764;28;20126;-76
2022/05/28 12:27:42;;;;;;;2.88;1.33;;;24.10;99.50;;;;;;5036093;28;20025;-77
2022/05/28 12:30:22;;;;;;;10.52;1.75;;;24.00;99.40;;;;;;5025996;28;20029;-76
2022/05/28 12:32:49;;;;;;;2.13;1.30;;;24.00;99.90;;;;;;5002359;28;20080;-76
2022/05/28 12:35:15;;;;;;;1.67;1.40;;;24.20;99.90;;;;;;5004898;28;20030;-76
2022/05/28 12:38:08;;;;;;;3.42;1.60;;;24.30;99.40;;;;;;5036209;28;20032;-77
2022/05/28 12:40:39;;;;;;;4.20;2.10;;;24.10;99.40;;;;;;5031681;28;20104;-76
2022/05/28 12:43:13;;;;;;;2.88;1.48;;;24.10;99.90;;;;;;5029012;28;20018;-76
2022/05/28 12:45:42;;;;;;;3.40;1.60;;;24.00;99.40;;;;;;5026853;28;20477;-76
2022/05/28 12:48:35;;;;;;;3.30;1.45;;;24.00;99.90;;;;;;5031875;28;20086;-75
2022/05/28 12:51:36;;;;;;;3.80;1.75;;;24.10;99.70;;;;;;5019332;28;20033;-77
2022/05/28 12:54:04;;;;;;;2.42;1.40;;;24.20;99.80;;;;;;5038470;28;20504;-75
2022/05/28 12:56:33;;;;;;;4.60;1.98;;;24.30;99.60;;;;;;5035663;28;20172;-75
2022/05/28 12:59:14;;;;;;;5.30;1.42;;;24.40;99.00;;;;;;5033242;28;20076;-75
2022/05/28 13:01:54;;;;;;;1.83;1.13;;;24.40;98.60;;;;;;5018574;28;20029;-76
2022/05/28 13:04:21;;;;;;;5.68;2.10;;;24.50;97.10;;;;;;5006994;28;20029;-76
2022/05/28 13:06:52;;;;;;;3.35;1.42;;;24.60;97.80;;;;;;5028705;28;20112;-76
2022/05/28 13:09:22;;;;;;;1.92;1.30;;;24.80;98.20;;;;;;5033641;28;20032;-77
2022/05/28 13:12:06;;;;;;;;;;;25.00;95.60;;;;;;5032918;28;20038;-76
2022/05/28 13:14:32;;;;;;;3.80;1.48;;;25.00;95.80;;;;;;5037994;28;19912;-76
2022/05/28 13:17:17;;;;;;;8.02;1.67;;;25.00;96.40;;;;;;5018184;28;20478;-75